createdAt,value
2024-01-08T00:02:44.218Z,18.40
2024-01-08T00:07:47.178Z,14.00
2024-01-08T00:12:49.927Z,12.70
2024-01-08T00:17:53.082Z,9.00
2024-01-08T00:22:56.352Z,13.50
2024-01-08T00:27:59.252Z,15.90
2024-01-08T00:33:02.078Z,14.80
2024-01-08T00:38:05.053Z,14.20
2024-01-08T00:43:07.682Z,14.50
2024-01-08T00:48:10.773Z,10.10
2024-01-08T00:53:13.513Z,16.00
2024-01-08T00:58:17.111Z,12.70
2024-01-08T01:03:20.758Z,15.50
2024-01-08T01:08:23.679Z,14.70
2024-01-08T01:13:27.093Z,13.20
2024-01-08T01:18:30.048Z,13.40
2024-01-08T01:23:33.631Z,10.90
2024-01-08T01:28:36.424Z,2.30
2024-01-08T01:33:39.584Z,21.10
2024-01-08T01:38:42.464Z,14.30
2024-01-08T01:43:45.113Z,16.60
2024-01-08T01:48:48.057Z,3.40
2024-01-08T01:53:51.047Z,10.90
2024-01-08T01:58:54.036Z,12.30
2024-01-08T02:03:57.193Z,12.80
2024-01-08T02:08:59.987Z,17.80
2024-01-08T02:14:02.750Z,13.00
2024-01-08T02:19:06.272Z,12.70
2024-01-08T02:24:08.971Z,11.40
2024-01-08T02:29:11.742Z,12.10
2024-01-08T02:34:14.501Z,11.30
2024-01-08T02:39:17.216Z,11.90
2024-01-08T02:44:20.054Z,14.70
2024-01-08T02:49:22.966Z,12.00
2024-01-08T02:54:26.415Z,13.00
2024-01-08T02:59:29.220Z,12.50
2024-01-08T03:04:31.889Z,9.60
2024-01-08T03:09:34.625Z,13.50
2024-01-08T03:14:37.298Z,16.40
2024-01-08T03:19:40.070Z,10.70
2024-01-08T03:24:42.769Z,13.20
2024-01-08T03:29:45.446Z,11.40
2024-01-08T03:34:48.124Z,12.40
2024-01-08T03:39:50.835Z,20.70
2024-01-08T03:44:53.620Z,17.50
2024-01-08T03:49:57.168Z,23.30
2024-01-08T03:54:59.903Z,19.50
2024-01-08T04:00:02.618Z,19.20
2024-01-08T04:05:06.536Z,15.40
2024-01-08T04:10:09.577Z,18.60
2024-01-08T04:15:12.365Z,14.30
2024-01-08T04:20:15.175Z,4.50
2024-01-08T04:25:18.253Z,19.70
2024-01-08T04:30:21.087Z,14.80
2024-01-08T04:35:23.915Z,15.50
2024-01-08T04:40:26.554Z,20.40
2024-01-08T04:45:30.649Z,19.90
2024-01-08T04:50:33.350Z,17.40
2024-01-08T04:55:37.453Z,12.30
2024-01-08T05:00:40.329Z,24.80
2024-01-08T05:05:43.790Z,14.30
2024-01-08T05:10:46.647Z,17.10
2024-01-08T05:15:49.305Z,17.60
2024-01-08T05:20:51.954Z,17.90
2024-01-08T05:25:54.774Z,14.10
2024-01-08T05:30:57.876Z,10.40
2024-01-08T05:36:01.708Z,11.80
2024-01-08T05:41:04.588Z,11.50
2024-01-08T05:46:08.571Z,11.00
2024-01-08T05:51:11.652Z,18.10
2024-01-08T05:56:14.401Z,32.60
2024-01-08T06:01:18.660Z,4.50
2024-01-08T06:06:22.034Z,12.20
2024-01-08T06:11:25.436Z,13.90
2024-01-08T06:16:32.261Z,17.60
2024-01-08T06:21:34.947Z,21.40
2024-01-08T06:26:37.761Z,13.50
2024-01-08T06:31:40.807Z,13.00
2024-01-08T06:36:43.538Z,24.00
2024-01-08T06:41:46.354Z,24.80
2024-01-08T06:46:49.017Z,18.30
2024-01-08T06:51:51.616Z,18.50
2024-01-08T06:56:54.293Z,16.80
2024-01-08T07:01:57.065Z,11.10
2024-01-08T07:07:00.616Z,10.80
2024-01-08T07:12:05.097Z,10.00
2024-01-08T07:17:07.850Z,8.20
2024-01-08T07:22:10.612Z,16.10
2024-01-08T07:27:13.502Z,17.20
2024-01-08T07:32:16.466Z,20.10
2024-01-08T07:37:19.202Z,15.30
2024-01-08T07:42:22.182Z,23.90
2024-01-08T07:47:25.209Z,18.50
2024-01-08T07:52:37.942Z,16.40
2024-01-08T07:57:41.784Z,14.80
2024-01-08T08:02:45.051Z,20.00
2024-01-08T08:07:48.256Z,19.40
2024-01-08T08:12:52.988Z,21.00
2024-01-08T08:25:02.498Z,13.70
2024-01-08T08:30:07.953Z,19.00
2024-01-08T08:35:11.577Z,25.00
2024-01-08T08:40:14.889Z,18.40
2024-01-08T08:45:19.223Z,19.20
2024-01-08T08:50:22.300Z,12.40
2024-01-08T08:55:24.953Z,18.20
2024-01-08T09:00:27.700Z,23.50
2024-01-08T09:05:36.875Z,28.10
2024-01-08T09:10:43.167Z,20.90
2024-01-08T09:15:46.036Z,15.60
2024-01-08T09:20:48.813Z,14.10
2024-01-08T09:25:51.658Z,15.40
2024-01-08T09:30:55.610Z,16.60
2024-01-08T09:35:59.008Z,13.40
2024-01-08T09:41:07.910Z,16.10
2024-01-08T09:46:20.022Z,19.40
2024-01-08T09:51:23.695Z,15.50
2024-01-08T09:56:27.905Z,17.20
2024-01-08T10:01:30.966Z,23.40
2024-01-08T10:06:34.097Z,19.10
2024-01-08T10:11:37.488Z,20.80
2024-01-08T10:16:54.820Z,17.30
2024-01-08T10:22:15.364Z,5.80
2024-01-08T10:27:18.615Z,25.60
2024-01-08T10:32:24.401Z,20.50
2024-01-08T10:37:28.377Z,22.80
2024-01-08T10:42:31.474Z,19.50
2024-01-08T10:47:45.580Z,13.70
2024-01-08T10:52:57.831Z,25.60
2024-01-08T10:58:05.891Z,23.80
2024-01-08T11:03:08.932Z,22.10
2024-01-08T11:08:13.837Z,29.60
2024-01-08T11:13:17.791Z,21.80
2024-01-08T11:18:31.952Z,14.00
2024-01-08T11:23:41.044Z,25.10
2024-01-08T11:29:04.620Z,21.50
2024-01-08T11:34:32.171Z,25.60
2024-01-08T11:39:41.085Z,18.30
2024-01-08T11:44:44.453Z,20.10
2024-01-08T11:50:07.930Z,19.70
2024-01-08T11:55:11.405Z,20.90
2024-01-08T12:00:16.296Z,26.80
2024-01-08T12:05:19.615Z,16.70
2024-01-08T12:10:22.792Z,25.70
2024-01-08T12:15:28.920Z,27.10
2024-01-08T12:20:31.914Z,22.30
2024-01-08T12:25:35.409Z,26.80
2024-01-08T12:30:40.136Z,27.70
2024-01-08T12:35:43.530Z,19.30
2024-01-08T12:40:46.545Z,21.20
2024-01-08T12:45:51.290Z,23.40
2024-01-08T12:50:54.574Z,23.40
2024-01-08T12:56:00.414Z,30.40
2024-01-08T13:01:03.455Z,29.80
2024-01-08T13:06:08.512Z,29.00
2024-01-08T13:11:13.109Z,29.40
2024-01-08T13:16:16.173Z,29.10
2024-01-08T13:21:19.069Z,19.30
2024-01-08T13:26:22.074Z,26.60
2024-01-08T13:31:25.084Z,29.70
2024-01-08T13:36:27.967Z,25.90
2024-01-08T13:41:32.318Z,25.80
2024-01-08T13:46:35.705Z,20.50
2024-01-08T13:51:38.580Z,27.00
2024-01-08T13:56:42.740Z,27.00
2024-01-08T14:01:45.714Z,29.30
2024-01-08T14:06:48.430Z,31.00
2024-01-08T14:11:51.267Z,26.70
2024-01-08T14:16:54.084Z,10.30
2024-01-08T14:21:57.017Z,29.20
2024-01-08T14:26:59.785Z,16.80
2024-01-08T14:32:02.879Z,28.30
2024-01-08T14:37:05.928Z,31.20
2024-01-08T14:42:09.088Z,26.50
2024-01-08T14:47:11.928Z,27.20
2024-01-08T14:52:15.071Z,26.90
2024-01-08T14:57:17.993Z,24.10
2024-01-08T15:02:21.270Z,22.90
2024-01-08T15:07:24.391Z,29.30
2024-01-08T15:12:27.411Z,28.80
2024-01-08T15:17:30.504Z,26.80
2024-01-08T15:22:33.661Z,17.80
2024-01-08T15:27:37.423Z,21.90
2024-01-08T15:32:42.377Z,22.50
2024-01-08T15:37:45.242Z,20.70
2024-01-08T15:42:47.928Z,34.80
2024-01-08T15:47:51.043Z,27.90
2024-01-08T15:52:53.877Z,26.20
2024-01-08T15:57:56.618Z,29.30
2024-01-08T16:02:59.594Z,29.40
2024-01-08T16:08:04.031Z,33.60
2024-01-08T16:13:06.786Z,38.40
2024-01-08T16:18:09.661Z,37.90
2024-01-08T16:23:12.423Z,32.40
2024-01-08T16:28:15.354Z,35.30
2024-01-08T16:33:18.320Z,26.70
2024-01-08T16:38:21.441Z,30.40
2024-01-08T16:43:25.258Z,25.00
2024-01-08T16:48:29.363Z,20.80
2024-01-08T16:53:33.271Z,20.50
2024-01-08T16:58:37.012Z,21.40
2024-01-08T17:03:42.436Z,25.60
2024-01-08T17:08:45.503Z,32.70
2024-01-08T17:13:48.794Z,39.60
2024-01-08T17:18:51.826Z,29.90
2024-01-08T17:23:54.726Z,35.90
2024-01-08T17:28:58.842Z,40.30
2024-01-08T17:34:01.708Z,36.90
2024-01-08T17:39:04.721Z,40.00
2024-01-08T17:44:08.630Z,82.60
2024-01-08T17:49:12.502Z,48.30
2024-01-08T17:54:15.266Z,24.70
2024-01-08T17:59:18.262Z,25.90
2024-01-08T18:04:21.223Z,32.00
2024-01-08T18:09:24.399Z,47.00
2024-01-08T18:14:29.117Z,54.20
2024-01-08T18:19:32.273Z,111.90
2024-01-08T18:24:37.298Z,88.00
2024-01-08T18:29:40.117Z,51.50
2024-01-08T18:34:42.892Z,33.50
2024-01-08T18:39:45.604Z,37.70
2024-01-08T18:44:48.366Z,34.20
2024-01-08T18:49:51.237Z,38.30
2024-01-08T18:54:54.361Z,30.50
2024-01-08T18:59:57.913Z,38.10
2024-01-08T19:05:01.407Z,52.70
2024-01-08T19:10:19.006Z,47.40
2024-01-08T19:15:21.756Z,46.60
2024-01-08T19:20:27.102Z,81.30
2024-01-08T19:25:42.252Z,59.10
2024-01-08T19:30:46.114Z,60.00
2024-01-08T19:35:49.013Z,73.00
2024-01-08T19:40:51.907Z,101.00
2024-01-08T19:45:54.964Z,81.80
2024-01-08T19:50:57.780Z,83.90
2024-01-08T19:56:00.604Z,74.50
2024-01-08T20:01:04.466Z,80.30
2024-01-08T20:06:09.162Z,82.10
2024-01-08T20:11:15.854Z,98.20
2024-01-08T20:16:19.833Z,81.80
2024-01-08T20:21:24.274Z,89.50
2024-01-08T20:26:27.130Z,109.20
2024-01-08T20:31:29.804Z,105.10
2024-01-08T20:36:46.339Z,129.10
2024-01-08T20:41:50.518Z,102.70
2024-01-08T20:46:54.146Z,143.50
2024-01-08T20:51:56.953Z,91.30
2024-01-08T20:57:02.690Z,100.60
2024-01-08T21:02:07.156Z,115.60
2024-01-08T21:07:09.964Z,118.70
2024-01-08T21:12:12.825Z,122.40
2024-01-08T21:17:15.837Z,119.90
2024-01-08T21:22:18.846Z,88.20
2024-01-08T21:27:21.568Z,123.60
2024-01-08T21:32:24.812Z,93.30
2024-01-08T21:37:32.880Z,91.40
2024-01-08T21:42:36.641Z,85.80
2024-01-08T21:47:39.412Z,87.10
2024-01-08T21:52:42.657Z,72.50
2024-01-08T21:57:45.549Z,77.10
2024-01-08T22:02:48.696Z,146.70
2024-01-08T22:07:51.866Z,115.10
2024-01-08T22:12:56.828Z,127.10
2024-01-08T22:17:59.874Z,131.40
2024-01-08T22:23:03.483Z,127.30
2024-01-08T22:28:09.588Z,138.20
2024-01-08T22:33:12.543Z,99.40
2024-01-08T22:38:15.456Z,114.70
2024-01-08T22:43:18.227Z,159.30
2024-01-08T22:48:20.936Z,146.30
2024-01-08T22:53:23.975Z,132.80
2024-01-08T22:58:26.609Z,106.90
2024-01-08T23:03:29.462Z,78.80
2024-01-08T23:08:32.690Z,83.90
2024-01-08T23:13:35.370Z,76.20
2024-01-08T23:18:38.191Z,67.90
2024-01-08T23:23:41.197Z,65.50
2024-01-08T23:28:44.162Z,72.60
2024-01-08T23:33:47.148Z,65.30
2024-01-08T23:38:50.016Z,59.60
2024-01-08T23:43:52.759Z,66.10
2024-01-08T23:48:55.543Z,62.30
2024-01-08T23:53:58.294Z,57.40
2024-01-08T23:59:01.090Z,76.70
